Reese AFB, Texas
Current Conditions -  °F | °C
As of 12:53 AM on Thursday 27 Nov 2014 (Local Time) from KLBB Reporting Station
Clear Clear  
Wind Chill: -2°   Ceiling: Unl
Heat Index:   Visibility: 10mi
Dew Point: -5°   Wind: 6mph
Humidity: 66%   Direction: 110°ESE
Pressure: 30.4"   Gusts: NA
Location:  33.59°N, 102.03°W
Report Text: KLBB 270653Z 11005KT 10SM CLR 01/M05 A3040 RMK AO2 SLP287 T00061050
Loading
Personal Weather Stations






























Interactive Weather Map New forecast layout! Learn more

10-Day Weather Forecast

Advertisements
Track Severe Weather on mobile